EGPB/LSI METAR and TAF weather

Enter ICAO airport designator
Station Type Date Time Source
EGPB METAR 2018/09/21 23:50 UTC NOAA

EGPB 212350Z AUTO 28024KT 9999 SCT028/// BKN041/// 10/04 Q0996


Station Type Date Time Source
EGPB Decoded METAR 2018/09/21 23:50 UTC NOAA

Sumburgh Cape , United Kingdom (EGPB) 59-53N 001-18W
Sep 21, 2018 - 07:50 PM EDT / 2018.09.21 2350 UTC
Wind: from the W (280 degrees) at 28 MPH (24 KT):0
Visibility: greater than 7 mile(s):0
Sky conditions: mostly cloudy
Temperature: 50 F (10 C)
Dew Point: 39 F (4 C)
Relative Humidity: 66%
Pressure (altimeter): 29.41 in. Hg (0996 hPa)
ob: EGPB 212350Z AUTO 28024KT 9999 SCT028/// BKN041/// 10/04 Q0996
cycle: 0

Station Type Date Time Source
EGPB TAF UTC NOAA

Error!


Example: see airport list